createdAt,value
2023-04-09T00:00:03.518Z,7.35
2023-04-09T00:02:40.309Z,7.35
2023-04-09T00:05:08.714Z,7.38
2023-04-09T00:07:36.750Z,7.33
2023-04-09T00:10:05.585Z,7.32
2023-04-09T00:12:33.562Z,7.33
2023-04-09T00:15:01.565Z,7.32
2023-04-09T00:17:29.737Z,7.33
2023-04-09T00:19:57.638Z,7.31
2023-04-09T00:22:25.535Z,7.33
2023-04-09T00:24:53.985Z,7.35
2023-04-09T00:27:23.014Z,7.28
2023-04-09T00:29:53.392Z,7.29
2023-04-09T00:32:21.849Z,7.30
2023-04-09T00:34:50.445Z,7.30
2023-04-09T00:37:18.369Z,7.27
2023-04-09T00:39:48.158Z,7.23
2023-04-09T00:42:16.650Z,7.21
2023-04-09T00:44:44.483Z,7.21
2023-04-09T00:47:12.854Z,7.15
2023-04-09T00:49:40.981Z,7.09
2023-04-09T00:52:08.929Z,7.17
2023-04-09T00:54:37.787Z,7.17
2023-04-09T00:57:06.130Z,7.21
2023-04-09T00:59:34.125Z,7.19
2023-04-09T01:02:02.409Z,7.20
2023-04-09T01:04:31.180Z,7.21
2023-04-09T01:07:45.745Z,7.25
2023-04-09T01:10:38.369Z,7.23
2023-04-09T01:13:16.339Z,7.30
2023-04-09T01:15:57.614Z,7.25
2023-04-09T01:18:47.485Z,7.24
2023-04-09T01:21:29.452Z,7.22
2023-04-09T01:24:17.300Z,7.23
2023-04-09T01:26:58.449Z,7.20
2023-04-09T01:29:49.007Z,7.22
2023-04-09T01:32:19.671Z,7.21
2023-04-09T01:34:49.344Z,7.19
2023-04-09T01:37:18.446Z,7.18
2023-04-09T01:39:47.741Z,7.28
2023-04-09T01:42:17.975Z,7.18
2023-04-09T01:44:47.058Z,7.19
2023-04-09T01:47:15.837Z,7.20
2023-04-09T01:49:44.887Z,7.21
2023-04-09T01:52:13.527Z,7.19
2023-04-09T01:54:43.339Z,7.11
2023-04-09T01:57:11.307Z,7.21
2023-04-09T01:59:39.400Z,7.22
2023-04-09T02:02:17.842Z,7.24
2023-04-09T02:04:49.767Z,7.27
2023-04-09T02:07:27.126Z,7.19
2023-04-09T02:09:55.777Z,7.19
2023-04-09T02:12:26.508Z,7.17
2023-04-09T02:14:56.124Z,7.10
2023-04-09T02:17:24.230Z,7.20
2023-04-09T02:19:52.917Z,7.16
2023-04-09T02:22:20.954Z,7.13
2023-04-09T02:24:49.416Z,7.13
2023-04-09T02:27:17.311Z,7.22
2023-04-09T02:29:45.351Z,7.25
2023-04-09T02:32:14.270Z,7.25
2023-04-09T02:34:42.581Z,7.19
2023-04-09T02:37:10.758Z,7.16
2023-04-09T02:39:38.917Z,7.20
2023-04-09T02:42:08.033Z,7.25
2023-04-09T02:44:36.192Z,7.22
2023-04-09T02:47:05.449Z,7.21
2023-04-09T02:49:33.475Z,7.15
2023-04-09T02:52:05.493Z,7.19
2023-04-09T02:54:34.606Z,7.29
2023-04-09T02:57:02.507Z,7.14
2023-04-09T02:59:33.089Z,7.09
2023-04-09T03:02:01.975Z,7.02
2023-04-09T03:04:29.954Z,7.02
2023-04-09T03:06:58.174Z,6.99
2023-04-09T03:09:26.651Z,7.08
2023-04-09T03:11:54.480Z,7.13
2023-04-09T03:14:23.017Z,7.10
2023-04-09T03:16:51.031Z,7.02
2023-04-09T03:19:19.588Z,7.04
2023-04-09T03:21:49.368Z,7.03
2023-04-09T03:24:19.319Z,7.07
2023-04-09T03:26:47.652Z,7.10
2023-04-09T03:29:16.877Z,7.06
2023-04-09T03:31:46.141Z,7.05
2023-04-09T03:34:14.146Z,7.03
2023-04-09T03:36:42.369Z,7.03
2023-04-09T03:39:16.369Z,7.07
2023-04-09T03:41:46.780Z,6.93
2023-04-09T03:44:19.251Z,6.91
2023-04-09T03:47:04.642Z,6.87
2023-04-09T03:49:34.720Z,6.83
2023-04-09T03:52:10.650Z,6.85
2023-04-09T03:54:43.686Z,6.87
2023-04-09T03:57:19.904Z,6.90
2023-04-09T03:59:50.588Z,6.84
2023-04-09T04:02:21.890Z,6.83
2023-04-09T04:04:58.898Z,6.83
2023-04-09T04:07:32.839Z,6.81
2023-04-09T04:10:08.419Z,6.70
2023-04-09T04:12:36.738Z,6.60
2023-04-09T04:15:10.059Z,6.56
2023-04-09T04:17:43.794Z,6.59
2023-04-09T04:20:26.866Z,6.67
2023-04-09T04:23:08.908Z,6.74
2023-04-09T04:25:42.678Z,6.82
2023-04-09T04:28:14.097Z,6.90
2023-04-09T04:30:43.444Z,6.93
2023-04-09T04:33:12.216Z,7.04
2023-04-09T04:35:46.354Z,7.12
2023-04-09T04:38:30.979Z,7.13
2023-04-09T04:41:02.328Z,7.19
2023-04-09T04:43:33.375Z,7.29
2023-04-09T04:46:02.235Z,7.32
2023-04-09T04:48:32.689Z,7.26
2023-04-09T04:51:02.314Z,7.26
2023-04-09T04:53:41.218Z,7.26
2023-04-09T04:56:16.320Z,7.35
2023-04-09T04:59:00.489Z,7.38
2023-04-09T05:01:32.525Z,7.41
2023-04-09T05:04:03.307Z,7.47
2023-04-09T05:06:36.037Z,7.46
2023-04-09T05:09:08.524Z,7.57
2023-04-09T05:11:46.968Z,7.61
2023-04-09T05:14:23.029Z,7.58
2023-04-09T05:16:51.485Z,7.60
2023-04-09T05:19:23.288Z,7.67
2023-04-09T05:21:59.198Z,7.76
2023-04-09T05:24:27.227Z,7.81
2023-04-09T05:26:55.949Z,7.65
2023-04-09T05:29:24.720Z,7.57
2023-04-09T05:31:52.708Z,7.56
2023-04-09T05:34:41.310Z,7.59
2023-04-09T05:37:09.260Z,7.68
2023-04-09T05:39:37.366Z,7.75
2023-04-09T05:42:07.057Z,7.77
2023-04-09T05:44:39.943Z,7.86
2023-04-09T05:47:18.065Z,7.86
2023-04-09T05:49:59.584Z,7.86
2023-04-09T05:52:28.643Z,8.00
2023-04-09T05:54:57.697Z,8.13
2023-04-09T05:57:37.799Z,8.21
2023-04-09T06:00:06.836Z,8.27
2023-04-09T06:02:45.689Z,8.37
2023-04-09T06:05:14.070Z,8.55
2023-04-09T06:07:42.055Z,8.66
2023-04-09T06:10:10.086Z,8.84
2023-04-09T06:12:38.034Z,8.96
2023-04-09T06:15:06.709Z,9.24
2023-04-09T06:17:34.925Z,9.53
2023-04-09T06:20:03.772Z,9.68
2023-04-09T06:22:31.741Z,9.78
2023-04-09T06:25:00.809Z,9.78
2023-04-09T06:27:28.750Z,9.71
2023-04-09T06:29:57.576Z,9.67
2023-04-09T06:32:25.835Z,9.49
2023-04-09T06:34:54.549Z,9.36
2023-04-09T06:37:22.479Z,9.27
2023-04-09T06:40:00.602Z,9.24
2023-04-09T06:42:29.565Z,9.27
2023-04-09T06:45:09.834Z,9.27
2023-04-09T06:47:37.910Z,9.37
2023-04-09T06:50:06.973Z,9.47
2023-04-09T06:52:35.164Z,9.59
2023-04-09T06:55:03.165Z,9.72
2023-04-09T06:57:31.300Z,9.82
2023-04-09T06:59:59.469Z,9.94
2023-04-09T07:02:28.046Z,10.09
2023-04-09T07:04:56.228Z,10.21
2023-04-09T07:07:25.647Z,10.43
2023-04-09T07:09:55.188Z,10.56
2023-04-09T07:12:33.731Z,10.77
2023-04-09T07:15:07.605Z,10.93
2023-04-09T07:17:36.999Z,11.27
2023-04-09T07:20:05.909Z,11.13
2023-04-09T07:22:34.277Z,11.19
2023-04-09T07:25:02.521Z,10.99
2023-04-09T07:27:30.485Z,11.32
2023-04-09T07:29:59.987Z,11.63
2023-04-09T07:32:28.693Z,11.81
2023-04-09T07:34:57.709Z,12.04
2023-04-09T07:37:26.204Z,12.32
2023-04-09T07:39:54.933Z,12.09
2023-04-09T07:42:23.803Z,11.85
2023-04-09T07:44:52.498Z,12.09
2023-04-09T07:47:21.648Z,12.27
2023-04-09T07:49:50.505Z,12.41
2023-04-09T07:52:19.608Z,12.18
2023-04-09T07:54:48.024Z,12.42
2023-04-09T07:57:16.657Z,12.44
2023-04-09T07:59:44.718Z,12.62
2023-04-09T08:02:15.068Z,12.61
2023-04-09T08:04:43.638Z,12.38
2023-04-09T08:07:12.104Z,12.43
2023-04-09T08:09:41.262Z,12.55
2023-04-09T08:12:09.515Z,12.63
2023-04-09T08:14:37.808Z,12.93
2023-04-09T08:17:06.504Z,13.01
2023-04-09T08:19:34.435Z,13.02
2023-04-09T08:22:02.512Z,13.00
2023-04-09T08:24:31.472Z,12.96
2023-04-09T08:27:01.908Z,13.36
2023-04-09T08:29:29.904Z,13.74
2023-04-09T08:31:58.160Z,13.99
2023-04-09T08:34:26.237Z,14.13
2023-04-09T08:36:54.295Z,14.64
2023-04-09T08:39:22.481Z,15.56
2023-04-09T08:41:52.264Z,15.59
2023-04-09T08:44:22.188Z,15.34
2023-04-09T08:46:51.435Z,15.56
2023-04-09T08:49:20.133Z,15.94
2023-04-09T08:51:49.422Z,16.10
2023-04-09T08:54:22.623Z,16.61
2023-04-09T08:56:51.349Z,16.89
2023-04-09T08:59:20.057Z,16.55
2023-04-09T09:01:54.719Z,16.67
2023-04-09T09:04:23.609Z,16.36
2023-04-09T09:06:53.189Z,16.13
2023-04-09T09:09:23.090Z,15.79
2023-04-09T09:11:53.761Z,15.78
2023-04-09T09:14:22.048Z,16.23
2023-04-09T09:16:56.617Z,16.41
2023-04-09T09:19:24.691Z,16.62
2023-04-09T09:22:15.547Z,16.64
2023-04-09T09:24:52.362Z,16.40
2023-04-09T09:27:41.353Z,16.00
2023-04-09T09:30:20.653Z,15.03
2023-04-09T09:33:05.954Z,15.81
2023-04-09T09:35:52.642Z,16.58
2023-04-09T09:38:21.736Z,17.32
2023-04-09T09:40:52.838Z,17.59
2023-04-09T09:43:22.359Z,17.09
2023-04-09T09:45:51.173Z,18.03
2023-04-09T09:48:21.363Z,18.41
2023-04-09T09:50:52.156Z,18.81
2023-04-09T09:53:25.591Z,19.04
2023-04-09T09:55:57.803Z,19.16
2023-04-09T09:58:39.028Z,19.02
2023-04-09T10:01:14.084Z,18.40
2023-04-09T10:03:44.461Z,17.70
2023-04-09T10:06:13.643Z,17.59
2023-04-09T10:08:43.268Z,17.39
2023-04-09T10:11:12.949Z,16.64
2023-04-09T10:13:49.611Z,16.73
2023-04-09T10:16:19.308Z,16.62
2023-04-09T10:18:47.897Z,16.92
2023-04-09T10:21:50.691Z,17.73
2023-04-09T10:24:19.202Z,16.93
2023-04-09T10:26:47.216Z,16.49
2023-04-09T10:29:17.255Z,16.31
2023-04-09T10:31:56.068Z,16.23
2023-04-09T10:34:28.513Z,16.35
2023-04-09T10:36:58.552Z,16.27
2023-04-09T10:39:32.879Z,16.72
2023-04-09T10:42:09.208Z,16.71
2023-04-09T10:44:41.931Z,16.48
2023-04-09T10:47:12.365Z,16.54
2023-04-09T10:49:42.589Z,16.34
2023-04-09T10:52:13.980Z,16.14
2023-04-09T10:54:46.100Z,16.68
2023-04-09T10:57:18.391Z,16.42
2023-04-09T10:59:52.395Z,16.44
2023-04-09T11:02:55.036Z,16.78
2023-04-09T11:05:34.761Z,16.48
2023-04-09T11:08:14.375Z,16.38
2023-04-09T11:10:45.314Z,16.35
2023-04-09T11:13:17.820Z,16.27
2023-04-09T11:15:46.751Z,17.01
2023-04-09T11:18:26.075Z,17.10
2023-04-09T11:20:59.643Z,17.41
2023-04-09T11:23:28.747Z,17.29
2023-04-09T11:25:57.003Z,16.98
2023-04-09T11:28:26.185Z,16.94
2023-04-09T11:30:54.903Z,16.66
2023-04-09T11:33:22.979Z,16.48
2023-04-09T11:35:51.857Z,16.62
2023-04-09T11:38:19.982Z,16.73
2023-04-09T11:40:48.858Z,16.91
2023-04-09T11:43:18.064Z,16.49
2023-04-09T11:45:50.150Z,16.68
2023-04-09T11:48:18.757Z,16.50
2023-04-09T11:50:48.080Z,16.63
2023-04-09T11:53:23.887Z,16.94
2023-04-09T11:55:53.231Z,17.35
2023-04-09T11:58:26.575Z,17.51
2023-04-09T12:00:58.230Z,17.63
2023-04-09T12:03:36.927Z,18.00
2023-04-09T12:06:07.500Z,18.00
2023-04-09T12:08:37.492Z,17.60
2023-04-09T12:11:16.643Z,17.22
2023-04-09T12:13:46.906Z,17.23
2023-04-09T12:16:19.792Z,17.11
2023-04-09T12:18:48.441Z,17.03
2023-04-09T12:21:19.244Z,16.82
2023-04-09T12:23:47.633Z,16.69
2023-04-09T12:26:15.926Z,15.98
2023-04-09T12:28:43.864Z,15.72
2023-04-09T12:31:12.206Z,15.53
2023-04-09T12:33:40.625Z,15.93
2023-04-09T12:36:08.732Z,16.12
2023-04-09T12:38:36.902Z,16.37
2023-04-09T12:41:05.248Z,16.29
2023-04-09T12:43:33.215Z,16.26
2023-04-09T12:46:01.396Z,16.47
2023-04-09T12:48:29.252Z,16.32
2023-04-09T12:50:57.570Z,16.16
2023-04-09T12:53:25.742Z,16.21
2023-04-09T12:55:53.791Z,16.09
2023-04-09T12:58:21.692Z,15.78
2023-04-09T13:00:49.961Z,15.84
2023-04-09T13:03:18.098Z,15.93
2023-04-09T13:05:46.193Z,15.90
2023-04-09T13:08:14.309Z,15.88
2023-04-09T13:10:42.829Z,15.76
2023-04-09T13:13:13.948Z,15.71
2023-04-09T13:15:45.678Z,15.59
2023-04-09T13:18:14.270Z,15.59
2023-04-09T13:20:42.259Z,15.53
2023-04-09T13:23:10.928Z,15.62
2023-04-09T13:25:39.060Z,15.55
2023-04-09T13:28:08.073Z,15.82
2023-04-09T13:30:36.313Z,15.82
2023-04-09T13:33:04.465Z,15.73
2023-04-09T13:35:32.526Z,15.72
2023-04-09T13:38:01.060Z,15.64
2023-04-09T13:40:29.163Z,15.68
2023-04-09T13:42:57.023Z,15.44
2023-04-09T13:45:25.375Z,15.56
2023-04-09T13:47:53.989Z,15.67
2023-04-09T13:50:22.543Z,15.78
2023-04-09T13:52:50.719Z,15.75
2023-04-09T13:55:18.796Z,15.67
2023-04-09T13:57:46.626Z,15.55
2023-04-09T14:00:15.118Z,15.75
2023-04-09T14:02:43.375Z,15.93
2023-04-09T14:05:11.335Z,16.19
2023-04-09T14:07:39.518Z,16.20
2023-04-09T14:10:08.684Z,16.15
2023-04-09T14:12:36.590Z,16.51
2023-04-09T14:15:05.555Z,17.09
2023-04-09T14:17:33.662Z,17.58
2023-04-09T14:20:03.816Z,17.82
2023-04-09T14:22:31.879Z,17.82
2023-04-09T14:25:00.196Z,18.04
2023-04-09T14:27:28.038Z,18.14
2023-04-09T14:29:56.209Z,18.54
2023-04-09T14:32:26.052Z,18.25
2023-04-09T14:34:54.892Z,18.02
2023-04-09T14:37:23.266Z,17.90
2023-04-09T14:39:51.332Z,17.77
2023-04-09T14:42:19.308Z,17.63
2023-04-09T14:44:48.656Z,18.07
2023-04-09T14:47:16.770Z,18.94
2023-04-09T14:49:45.125Z,18.92
2023-04-09T14:52:13.256Z,19.26
2023-04-09T14:54:41.935Z,19.10
2023-04-09T14:57:09.751Z,18.55
2023-04-09T14:59:38.264Z,16.76
2023-04-09T15:02:06.811Z,16.37
2023-04-09T15:04:35.030Z,16.18
2023-04-09T15:07:03.053Z,16.21
2023-04-09T15:09:31.818Z,16.49
2023-04-09T15:12:00.364Z,16.49
2023-04-09T15:14:32.208Z,16.52
2023-04-09T15:17:00.340Z,16.53
2023-04-09T15:19:28.296Z,16.41
2023-04-09T15:21:56.875Z,16.30
2023-04-09T15:24:24.839Z,16.24
2023-04-09T15:26:53.009Z,16.14
2023-04-09T15:29:21.054Z,16.09
2023-04-09T15:31:49.833Z,15.99
2023-04-09T15:34:18.000Z,15.88
2023-04-09T15:36:46.468Z,15.82
2023-04-09T15:39:14.434Z,15.78
2023-04-09T15:41:42.399Z,15.62
2023-04-09T15:44:10.783Z,15.59
2023-04-09T15:46:39.050Z,15.50
2023-04-09T15:49:07.268Z,15.45
2023-04-09T15:51:35.427Z,15.34
2023-04-09T15:54:03.442Z,15.34
2023-04-09T15:56:31.640Z,15.20
2023-04-09T15:59:02.306Z,15.19
2023-04-09T16:01:30.351Z,15.15
2023-04-09T16:03:58.573Z,15.04
2023-04-09T16:06:26.697Z,14.93
2023-04-09T16:08:55.216Z,14.83
2023-04-09T16:11:23.555Z,14.76
2023-04-09T16:13:51.615Z,14.71
2023-04-09T16:16:20.166Z,14.51
2023-04-09T16:18:48.327Z,14.37
2023-04-09T16:21:16.757Z,14.21
2023-04-09T16:23:44.649Z,14.30
2023-04-09T16:26:12.587Z,14.16
2023-04-09T16:33:32.215Z,13.89
2023-04-09T16:36:00.172Z,13.72
2023-04-09T16:38:29.270Z,13.54
2023-04-09T16:40:57.539Z,13.42
2023-04-09T16:43:26.349Z,13.25
2023-04-09T16:45:55.608Z,13.12
2023-04-09T16:48:24.803Z,12.99
2023-04-09T16:50:52.966Z,12.89
2023-04-09T16:53:20.987Z,12.81
2023-04-09T16:55:50.729Z,12.70
2023-04-09T16:58:19.278Z,12.56
2023-04-09T17:00:48.743Z,12.56
2023-04-09T17:03:18.114Z,12.56
2023-04-09T17:05:49.844Z,12.55
2023-04-09T17:08:18.331Z,12.47
2023-04-09T17:10:46.569Z,12.38
2023-04-09T17:13:14.535Z,12.35
2023-04-09T17:15:42.757Z,12.35
2023-04-09T17:18:11.194Z,12.37
2023-04-09T17:20:39.113Z,12.34
2023-04-09T17:23:07.398Z,12.27
2023-04-09T17:25:35.943Z,12.19
2023-04-09T17:28:04.957Z,12.24
2023-04-09T17:30:33.439Z,12.24
2023-04-09T17:33:01.954Z,12.14
2023-04-09T17:35:30.166Z,12.09
2023-04-09T17:37:58.422Z,12.02
2023-04-09T17:40:28.436Z,12.04
2023-04-09T17:42:56.636Z,11.98
2023-04-09T17:45:24.604Z,11.97
2023-04-09T17:47:53.121Z,11.89
2023-04-09T17:50:21.451Z,11.86
2023-04-09T17:52:49.437Z,11.77
2023-04-09T17:55:17.921Z,11.66
2023-04-09T17:57:45.949Z,11.65
2023-04-09T18:00:14.957Z,11.61
2023-04-09T18:02:54.191Z,11.62
2023-04-09T18:05:23.321Z,11.61
2023-04-09T18:07:53.234Z,11.62
2023-04-09T18:10:23.713Z,11.54
2023-04-09T18:12:51.954Z,11.47
2023-04-09T18:15:21.808Z,11.43
2023-04-09T18:17:50.260Z,11.39
2023-04-09T18:20:18.521Z,11.25
2023-04-09T18:22:47.667Z,11.20
2023-04-09T18:25:16.067Z,11.16
2023-04-09T18:27:44.094Z,11.14
2023-04-09T18:30:13.313Z,11.09
2023-04-09T18:32:41.762Z,11.09
2023-04-09T18:35:10.640Z,11.12
2023-04-09T18:37:39.196Z,11.15
2023-04-09T18:40:13.000Z,11.24
2023-04-09T18:42:41.548Z,11.19
2023-04-09T18:45:10.921Z,11.19
2023-04-09T18:47:39.218Z,11.05
2023-04-09T18:50:08.188Z,11.03
2023-04-09T18:52:38.904Z,10.98
2023-04-09T18:55:08.715Z,10.94
2023-04-09T18:57:36.953Z,10.91
2023-04-09T19:00:06.428Z,10.96
2023-04-09T19:02:35.052Z,10.98
2023-04-09T19:05:07.456Z,10.87
2023-04-09T19:07:36.568Z,10.91
2023-04-09T19:10:05.078Z,10.89
2023-04-09T19:12:33.274Z,10.83
2023-04-09T19:15:02.097Z,10.77
2023-04-09T19:17:30.349Z,10.71
2023-04-09T19:19:58.516Z,10.69
2023-04-09T19:22:28.781Z,10.56
2023-04-09T19:24:57.699Z,10.65
2023-04-09T19:27:26.661Z,10.77
2023-04-09T19:30:10.761Z,10.79
2023-04-09T19:32:41.928Z,10.72
2023-04-09T19:35:11.525Z,10.77
2023-04-09T19:37:39.900Z,10.75
2023-04-09T19:40:09.282Z,10.69
2023-04-09T19:42:37.998Z,10.64
2023-04-09T19:45:07.040Z,10.48
2023-04-09T19:47:35.527Z,10.40
2023-04-09T19:50:03.883Z,10.45
2023-04-09T19:52:32.080Z,10.28
2023-04-09T19:55:01.956Z,10.16
2023-04-09T19:57:31.973Z,10.13
2023-04-09T20:00:00.219Z,10.21
2023-04-09T20:02:28.465Z,10.32
2023-04-09T20:04:56.953Z,10.30
2023-04-09T20:07:25.018Z,10.20
2023-04-09T20:09:53.203Z,10.17
2023-04-09T20:12:29.769Z,10.10
2023-04-09T20:14:58.579Z,10.00
2023-04-09T20:17:27.761Z,9.98
2023-04-09T20:19:56.248Z,10.02
2023-04-09T20:22:24.583Z,10.03
2023-04-09T20:24:53.975Z,9.93
2023-04-09T20:27:22.840Z,9.78
2023-04-09T20:29:50.979Z,9.74
2023-04-09T20:32:20.154Z,9.72
2023-04-09T20:34:48.647Z,9.78
2023-04-09T20:37:16.603Z,9.71
2023-04-09T20:39:45.297Z,9.71
2023-04-09T20:42:13.463Z,9.72
2023-04-09T20:44:41.756Z,9.65
2023-04-09T20:47:10.070Z,9.65
2023-04-09T20:49:38.951Z,9.67
2023-04-09T20:52:09.366Z,9.55
2023-04-09T20:54:40.099Z,9.49
2023-04-09T20:57:08.239Z,9.49
2023-04-09T20:59:37.587Z,9.50
2023-04-09T21:02:06.120Z,9.39
2023-04-09T21:04:35.501Z,9.25
2023-04-09T21:07:03.741Z,9.22
2023-04-09T21:09:32.355Z,9.10
2023-04-09T21:12:02.747Z,9.07
2023-04-09T21:14:31.652Z,9.08
2023-04-09T21:17:01.205Z,8.88
2023-04-09T21:19:29.424Z,8.86
2023-04-09T21:21:57.920Z,8.78
2023-04-09T21:24:27.287Z,8.72
2023-04-09T21:26:55.714Z,8.66
2023-04-09T21:29:23.625Z,8.61
2023-04-09T21:31:51.791Z,8.58
2023-04-09T21:34:21.324Z,8.46
2023-04-09T21:36:49.328Z,8.46
2023-04-09T21:39:17.607Z,8.44
2023-04-09T21:41:45.990Z,8.39
2023-04-09T21:44:14.009Z,8.29
2023-04-09T21:46:42.327Z,8.36
2023-04-09T21:49:10.505Z,8.29
2023-04-09T21:51:39.392Z,8.27
2023-04-09T21:54:09.983Z,8.25
2023-04-09T21:56:42.016Z,8.16
2023-04-09T21:59:10.176Z,8.00
2023-04-09T22:01:38.441Z,8.01
2023-04-09T22:04:07.193Z,7.97
2023-04-09T22:06:35.526Z,7.94
2023-04-09T22:09:04.234Z,7.92
2023-04-09T22:11:35.283Z,7.88
2023-04-09T22:14:03.456Z,7.85
2023-04-09T22:16:32.833Z,7.84
2023-04-09T22:19:01.011Z,7.85
2023-04-09T22:21:29.092Z,7.93
2023-04-09T22:23:57.397Z,7.89
2023-04-09T22:26:25.506Z,7.91
2023-04-09T22:28:54.148Z,7.99
2023-04-09T22:31:23.059Z,8.04
2023-04-09T22:33:51.148Z,8.08
2023-04-09T22:36:19.881Z,8.01
2023-04-09T22:38:47.905Z,7.88
2023-04-09T22:41:17.736Z,7.85
2023-04-09T22:43:47.189Z,7.91
2023-04-09T22:46:15.921Z,7.92
2023-04-09T22:48:46.688Z,7.96
2023-04-09T22:51:15.747Z,7.97
2023-04-09T22:53:44.679Z,7.94
2023-04-09T22:56:13.484Z,7.88
2023-04-09T22:58:42.006Z,7.94
2023-04-09T23:01:12.006Z,7.95
2023-04-09T23:03:40.201Z,8.05
2023-04-09T23:06:08.164Z,7.82
2023-04-09T23:08:38.782Z,7.71
2023-04-09T23:11:08.534Z,7.91
2023-04-09T23:13:38.788Z,7.91
2023-04-09T23:16:08.492Z,7.84
2023-04-09T23:18:37.730Z,7.89
2023-04-09T23:21:10.867Z,7.83
2023-04-09T23:23:39.444Z,7.86
2023-04-09T23:26:07.639Z,7.88
2023-04-09T23:28:35.864Z,7.87
2023-04-09T23:31:04.240Z,7.86
2023-04-09T23:33:32.799Z,7.83
2023-04-09T23:36:00.782Z,7.81
2023-04-09T23:38:28.887Z,7.67
2023-04-09T23:40:57.050Z,7.75
2023-04-09T23:43:25.167Z,7.71
2023-04-09T23:45:53.248Z,7.53
2023-04-09T23:48:21.150Z,7.43
2023-04-09T23:50:49.292Z,7.42
2023-04-09T23:53:17.673Z,7.34
2023-04-09T23:55:47.872Z,7.24
2023-04-09T23:58:16.280Z,7.11
